Time;durP1;ratioP1;P1;durP2;ratioP2;P2;SDS_P1;SDS_P2;PMS_P1;PMS_P2;Temp;Humidity;BMP_temperature;BMP_pressure;BME280_temperature;BME280_humidity;BME280_pressure;Samples;Min_cycle;Max_cycle;Signal;HPM_P1;HPM_P2
2022/09/09 00:00:25;;;;;;;;;;;18.70;99.90;;;;;;5038141;28;19909;-79
2022/09/09 00:03:10;;;;;;;;;;;18.70;99.90;;;;;;5037232;28;19909;-80
2022/09/09 00:05:44;;;;;;;;;;;18.70;99.90;;;;;;5054301;28;19916;-79
2022/09/09 00:08:15;;;;;;;;;;;18.70;99.90;;;;;;5037178;28;19916;-80
2022/09/09 00:10:41;;;;;;;;;;;18.70;99.90;;;;;;5036980;28;19987;-80
2022/09/09 00:13:15;;;;;;;;;;;18.80;99.90;;;;;;5037131;28;19914;-79
2022/09/09 00:15:44;;;;;;;;;;;18.80;99.90;;;;;;5036621;28;19909;-79
2022/09/09 00:18:14;;;;;;;;;;;18.80;99.90;;;;;;5036860;28;19909;-79
2022/09/09 00:20:43;;;;;;;;;;;18.80;99.90;;;;;;5037538;28;20013;-79
2022/09/09 00:23:24;;;;;;;;;;;18.80;99.90;;;;;;5037066;28;19971;-79
2022/09/09 00:26:11;;;;;;;;;;;18.90;99.90;;;;;;5036428;28;19971;-79
2022/09/09 00:28:54;;;;;;;;;;;18.80;99.90;;;;;;5036998;28;19913;-79
2022/09/09 00:31:22;;;;;;;;;;;18.90;99.90;;;;;;5036845;28;19913;-79
2022/09/09 00:33:49;;;;;;;;;;;19.00;99.90;;;;;;5036286;28;19909;-79
2022/09/09 00:36:17;;;;;;;;;;;19.00;99.90;;;;;;5036053;28;19909;-79
2022/09/09 00:38:56;;;;;;;;;;;19.00;99.90;;;;;;5036786;28;20452;-79
2022/09/09 00:41:31;;;;;;;;;;;19.00;99.90;;;;;;5036185;28;19928;-80
2022/09/09 00:44:00;;;;;;;;;;;19.00;99.90;;;;;;5036280;28;19959;-80
2022/09/09 00:46:44;;;;;;;;;;;19.00;99.90;;;;;;5036055;28;19909;-80
2022/09/09 00:49:13;;;;;;;;;;;19.00;99.90;;;;;;5052718;28;20335;-78
2022/09/09 00:51:41;;;;;;;;;;;19.00;99.90;;;;;;5035753;28;19910;-79
2022/09/09 00:54:27;;;;;;;;;;;18.90;99.90;;;;;;5036002;28;20011;-79
2022/09/09 00:56:59;;;;;;;;;;;18.90;99.90;;;;;;5005316;28;20328;-78
2022/09/09 00:59:31;;;;;;;;;;;18.90;99.90;;;;;;5035842;28;19909;-79
2022/09/09 01:01:57;;;;;;;;;;;18.90;99.90;;;;;;5035055;28;20097;-80
2022/09/09 01:04:28;;;;;;;;;;;18.80;99.90;;;;;;5035673;28;19996;-79
2022/09/09 01:06:59;;;;;;;;;;;18.80;99.90;;;;;;5035078;28;19909;-79
2022/09/09 01:09:40;;;;;;;;;;;18.80;99.90;;;;;;5036339;28;19920;-79
2022/09/09 01:12:14;;;;;;;;;;;18.70;99.90;;;;;;5035112;28;20498;-79
2022/09/09 01:14:44;;;;;;;;;;;18.70;99.90;;;;;;5035201;28;19983;-79
2022/09/09 01:17:14;;;;;;;;;;;18.60;99.90;;;;;;5035388;28;19913;-79
2022/09/09 01:19:43;;;;;;;;;;;18.60;99.90;;;;;;5035410;28;19909;-79
2022/09/09 01:22:35;;;;;;;;;;;18.60;99.90;;;;;;5035291;28;19909;-79
2022/09/09 01:25:16;;;;;;;;;;;18.60;99.90;;;;;;5011690;28;19917;-80
2022/09/09 01:27:42;;;;;;;;;;;18.50;99.90;;;;;;5034511;28;19916;-79
2022/09/09 01:30:12;;;;;;;;;;;18.50;99.90;;;;;;5034583;28;20367;-79
2022/09/09 01:32:40;;;;;;;;;;;18.40;99.90;;;;;;5035695;28;20276;-79
2022/09/09 01:35:09;;;;;;;;;;;18.50;99.90;;;;;;5035229;28;19909;-80
2022/09/09 01:37:35;;;;;;;;;;;18.50;99.90;;;;;;5034815;28;20288;-79
2022/09/09 01:40:00;;;;;;;;;;;18.50;99.90;;;;;;5034988;28;19917;-79
2022/09/09 01:42:26;;;;;;;;;;;18.40;99.90;;;;;;5034730;28;20327;-79
2022/09/09 01:44:51;;;;;;;;;;;18.40;99.90;;;;;;5035079;28;19944;-79
2022/09/09 01:47:17;;;;;;;;;;;18.40;99.90;;;;;;5034721;28;19952;-80
2022/09/09 01:49:43;;;;;;;;;;;18.40;99.90;;;;;;5034578;28;19921;-79
2022/09/09 01:52:11;;;;;;;;;;;18.40;99.90;;;;;;5034576;28;20291;-79
2022/09/09 01:54:37;;;;;;;;;;;18.30;99.90;;;;;;5034553;28;19921;-79
2022/09/09 01:57:05;;;;;;;;;;;18.40;99.90;;;;;;5034410;28;20292;-80
2022/09/09 01:59:49;;;;;;;;;;;18.40;99.90;;;;;;5034194;28;19941;-78
2022/09/09 02:02:15;;;;;;;;;;;18.40;99.90;;;;;;5035211;28;19916;-79
2022/09/09 02:04:48;;;;;;;;;;;18.50;99.90;;;;;;5034879;28;19909;-79
2022/09/09 02:07:13;;;;;;;;;;;18.50;99.90;;;;;;5034206;28;20323;-79
2022/09/09 02:09:40;;;;;;;;;;;18.50;99.90;;;;;;5034366;28;19963;-79
2022/09/09 02:12:11;;;;;;;;;;;18.60;99.90;;;;;;5034326;28;19909;-79
2022/09/09 02:14:40;;;;;;;;;;;18.60;99.90;;;;;;5034404;28;20020;-79
2022/09/09 02:17:09;;;;;;;;;;;18.60;99.90;;;;;;5032972;28;20096;-79
2022/09/09 02:19:55;;;;;;;;;;;18.60;99.90;;;;;;5034787;28;19948;-79
2022/09/09 02:22:22;;;;;;;;;;;18.60;99.90;;;;;;5034022;28;19977;-80
2022/09/09 02:24:50;;;;;;;;;;;18.60;99.90;;;;;;5034337;28;20673;-79
2022/09/09 02:27:17;;;;;;;;;;;18.60;99.90;;;;;;5034332;28;19947;-79
2022/09/09 02:29:44;;;;;;;;;;;18.60;99.90;;;;;;5033872;28;19913;-79
2022/09/09 02:32:11;;;;;;;;;;;18.50;99.90;;;;;;5034272;28;19982;-80
2022/09/09 02:34:40;;;;;;;;;;;18.50;99.90;;;;;;5033835;28;19982;-79
2022/09/09 02:37:06;;;;;;;;;;;18.60;99.90;;;;;;5035901;28;19910;-79
2022/09/09 02:39:32;;;;;;;;;;;18.60;99.90;;;;;;5037731;28;19913;-78
2022/09/09 02:41:57;;;;;;;;;;;18.60;99.90;;;;;;5038126;28;19935;-79
2022/09/09 02:44:23;;;;;;;;;;;18.70;99.90;;;;;;5039318;28;19909;-80
2022/09/09 02:46:58;;;;;;;;;;;18.70;99.90;;;;;;5040693;28;20296;-80
2022/09/09 02:49:39;;;;;;;;;;;18.70;99.90;;;;;;5042992;28;19913;-80
2022/09/09 02:52:06;;;;;;;;;;;18.70;99.90;;;;;;5042797;28;19909;-80
2022/09/09 02:54:33;;;;;;;;;;;18.70;99.90;;;;;;5043187;28;19944;-79
2022/09/09 02:57:07;;;;;;;;;;;18.70;99.90;;;;;;5042244;28;19910;-79
2022/09/09 02:59:33;;;;;;;;;;;18.60;99.90;;;;;;5042561;28;19971;-80
2022/09/09 03:01:59;;;;;;;;;;;18.60;99.90;;;;;;5042231;28;19981;-80
2022/09/09 03:04:24;;;;;;;;;;;18.70;99.90;;;;;;5042245;28;20364;-79
2022/09/09 03:06:50;;;;;;;;;;;18.70;99.90;;;;;;5041036;28;20430;-80
2022/09/09 03:09:15;;;;;;;;;;;18.70;99.90;;;;;;5042562;28;19966;-80
2022/09/09 03:11:41;;;;;;;;;;;18.70;99.90;;;;;;5041372;28;19909;-80
2022/09/09 03:14:08;;;;;;;;;;;18.70;99.90;;;;;;5041569;28;19924;-80
2022/09/09 03:16:34;;;;;;;;;;;18.80;99.90;;;;;;5040510;28;19963;-80
2022/09/09 03:19:00;;;;;;;;;;;18.80;99.90;;;;;;5041124;28;19913;-79
2022/09/09 03:21:26;;;;;;;;;;;18.80;99.90;;;;;;5040723;28;20372;-79
2022/09/09 03:23:51;;;;;;;;;;;18.80;99.90;;;;;;5040803;28;19920;-80
2022/09/09 03:26:17;;;;;;;;;;;18.80;99.90;;;;;;5040735;28;20281;-80
2022/09/09 03:28:43;;;;;;;;;;;18.70;99.90;;;;;;5040719;28;20007;-80
2022/09/09 03:31:10;;;;;;;;;;;18.70;99.90;;;;;;5039921;28;19924;-79
2022/09/09 03:33:40;;;;;;;;;;;18.70;99.90;;;;;;5040546;28;20350;-80
2022/09/09 03:36:07;;;;;;;;;;;18.70;99.90;;;;;;5038518;28;19983;-79
2022/09/09 03:38:33;;;;;;;;;;;18.70;99.90;;;;;;5039581;28;19952;-80
2022/09/09 03:41:00;;;;;;;;;;;18.80;99.90;;;;;;5038712;28;19917;-81
2022/09/09 03:43:26;;;;;;;;;;;18.80;99.90;;;;;;5038332;28;19928;-77
2022/09/09 03:45:52;;;;;;;;;;;18.80;99.90;;;;;;5038386;28;19948;-78
2022/09/09 03:48:18;;;;;;;;;;;18.80;99.90;;;;;;5038263;28;19931;-81
2022/09/09 03:50:45;;;;;;;;;;;18.80;99.90;;;;;;5038804;28;20287;-79
2022/09/09 03:53:10;;;;;;;;;;;18.80;99.90;;;;;;5038852;28;19991;-80
2022/09/09 03:55:36;;;;;;;;;;;18.90;99.90;;;;;;5038390;28;19920;-79
2022/09/09 03:58:01;;;;;;;;;;;18.90;99.90;;;;;;5039286;28;19916;-79
2022/09/09 04:00:27;;;;;;;;;;;18.90;99.90;;;;;;5038818;28;20407;-79
2022/09/09 04:02:54;;;;;;;;;;;19.00;99.90;;;;;;5038884;28;20358;-80
2022/09/09 04:05:19;;;;;;;;;;;19.00;99.90;;;;;;5038149;28;19920;-80
2022/09/09 04:07:45;;;;;;;;;;;19.00;99.90;;;;;;5038268;28;19964;-79
2022/09/09 04:10:11;;;;;;;;;;;19.00;99.90;;;;;;5038403;28;20364;-79
2022/09/09 04:12:36;;;;;;;;;;;19.00;99.90;;;;;;5038898;28;19999;-78
2022/09/09 04:15:02;;;;;;;;;;;19.00;99.90;;;;;;5039664;28;20000;-79
2022/09/09 04:17:27;;;;;;;;;;;19.00;99.90;;;;;;5037637;28;19978;-79
2022/09/09 04:19:53;;;;;;;;;;;19.00;99.90;;;;;;5037301;28;19909;-78
2022/09/09 04:22:18;;;;;;;;;;;19.00;99.90;;;;;;5037374;28;19967;-78
2022/09/09 04:24:44;;;;;;;;;;;19.00;99.90;;;;;;5037346;28;19959;-78
2022/09/09 04:27:09;;;;;;;;;;;19.00;99.90;;;;;;5037456;28;19913;-79
2022/09/09 04:29:35;;;;;;;;;;;19.00;99.90;;;;;;5037462;28;19913;-79
2022/09/09 04:32:01;;;;;;;;;;;19.10;99.90;;;;;;5039091;28;19992;-79
2022/09/09 04:34:26;;;;;;;;;;;19.10;99.90;;;;;;5036848;28;19913;-79
2022/09/09 04:36:52;;;;;;;;;;;19.10;99.90;;;;;;5036873;28;19916;-79
2022/09/09 04:39:17;;;;;;;;;;;19.20;99.90;;;;;;5037821;28;19914;-80
2022/09/09 04:41:43;;;;;;;;;;;19.20;99.90;;;;;;5038590;28;19963;-80
2022/09/09 04:44:09;;;;;;;;;;;19.20;99.90;;;;;;5038380;28;19960;-79
2022/09/09 04:46:35;;;;;;;;;;;19.20;99.90;;;;;;5037357;28;19913;-79
2022/09/09 04:49:01;;;;;;;;;;;19.10;99.90;;;;;;5037365;28;20379;-80
2022/09/09 04:51:26;;;;;;;;;;;19.20;99.90;;;;;;5037285;28;19921;-80
2022/09/09 04:53:53;;;;;;;;;;;19.20;99.90;;;;;;5037023;28;20004;-79
2022/09/09 04:56:19;;;;;;;;;;;19.20;99.90;;;;;;5036786;28;20492;-79
2022/09/09 04:58:45;;;;;;;;;;;19.10;99.90;;;;;;5036129;28;19919;-80
2022/09/09 05:01:14;;;;;;;;;;;19.20;99.90;;;;;;5036921;28;19953;-79
2022/09/09 05:03:40;;;;;;;;;;;19.20;99.90;;;;;;5036641;28;19936;-79
2022/09/09 05:06:09;;;;;;;;;;;19.20;99.90;;;;;;5036386;28;20376;-79
2022/09/09 05:08:39;;;;;;;;;;;19.20;99.90;;;;;;5035855;28;19909;-80
2022/09/09 05:11:17;;;;;;;;;;;19.10;99.90;;;;;;5037011;28;19909;-79
2022/09/09 05:13:43;;;;;;;;;;;19.10;99.90;;;;;;5036765;28;19909;-80
2022/09/09 05:16:11;;;;;;;;;;;19.00;99.90;;;;;;5036777;28;19910;-80
2022/09/09 05:18:37;;;;;;;;;;;19.00;99.90;;;;;;5036072;28;19913;-79
2022/09/09 05:21:02;;;;;;;;;;;19.00;99.90;;;;;;5036262;28;19909;-79
2022/09/09 05:23:28;;;;;;;;;;;19.00;99.90;;;;;;5036361;28;19916;-79
2022/09/09 05:25:57;;;;;;;;;;;19.00;99.90;;;;;;5036431;28;20399;-80
2022/09/09 05:28:24;;;;;;;;;;;19.00;99.90;;;;;;5036223;28;19916;-79
2022/09/09 05:30:57;;;;;;;;;;;19.10;99.90;;;;;;5035870;28;20295;-79
2022/09/09 05:33:23;;;;;;;;;;;19.10;99.90;;;;;;5036835;28;19917;-79
2022/09/09 05:35:55;;;;;;;;;;;19.10;99.90;;;;;;5036073;28;19909;-79
2022/09/09 05:38:24;;;;;;;;;;;19.10;99.90;;;;;;5036743;28;19910;-79
2022/09/09 05:40:50;;;;;;;;;;;19.10;99.90;;;;;;5036078;28;19917;-79
2022/09/09 05:43:15;;;;;;;;;;;19.20;99.90;;;;;;5036092;28;19909;-80
2022/09/09 05:45:41;;;;;;;;;;;19.20;99.90;;;;;;5035269;28;19916;-79
2022/09/09 05:48:07;;;;;;;;;;;19.20;99.90;;;;;;5035823;28;19913;-79
2022/09/09 05:50:33;;;;;;;;;;;19.20;99.90;;;;;;5036515;28;19913;-79
2022/09/09 05:52:58;;;;;;;;;;;19.20;99.90;;;;;;5035735;28;19963;-79
2022/09/09 05:55:25;;;;;;;;;;;19.20;99.90;;;;;;5036190;28;19909;-79
2022/09/09 05:57:51;;;;;;;;;;;19.30;99.90;;;;;;5036570;28;20611;-79
2022/09/09 06:00:17;;;;;;;;;;;19.30;99.90;;;;;;5035525;28;19909;-79
2022/09/09 06:02:43;;;;;;;;;;;19.30;99.90;;;;;;5035318;28;19916;-79
2022/09/09 06:05:10;;;;;;;;;;;19.30;99.90;;;;;;5035801;28;20004;-79
2022/09/09 06:07:36;;;;;;;;;;;19.40;99.90;;;;;;5034843;28;19909;-79
2022/09/09 06:10:01;;;;;;;;;;;19.40;99.90;;;;;;5035386;28;19920;-79
2022/09/09 06:12:27;;;;;;;;;;;19.50;99.90;;;;;;5040212;28;19916;-79
2022/09/09 06:14:52;;;;;;;;;;;19.50;99.90;;;;;;5039204;28;19909;-80
2022/09/09 06:17:18;;;;;;;;;;;19.50;99.90;;;;;;5040147;28;19963;-79
2022/09/09 06:19:43;;;;;;;;;;;19.50;99.90;;;;;;5039216;28;19963;-79
2022/09/09 06:22:11;;;;;;;;;;;19.50;99.90;;;;;;5039595;28;20043;-79
2022/09/09 06:24:37;;;;;;;;;;;19.50;99.90;;;;;;5039061;28;19909;-79
2022/09/09 06:27:03;;;;;;;;;;;19.50;99.90;;;;;;5038798;28;19909;-79
2022/09/09 06:29:28;;;;;;;;;;;19.50;99.90;;;;;;5039056;28;19920;-79
2022/09/09 06:31:54;;;;;;;;;;;19.50;99.90;;;;;;5039152;28;19959;-79
2022/09/09 06:34:20;;;;;;;;;;;19.60;99.90;;;;;;5039067;28;19909;-79
2022/09/09 06:36:46;;;;;;;;;;;19.60;99.90;;;;;;5039262;28;20071;-79
2022/09/09 06:39:11;;;;;;;;;;;19.60;99.90;;;;;;5039154;28;19909;-80
2022/09/09 06:41:38;;;;;;;;;;;19.70;99.90;;;;;;5039765;28;19913;-79
2022/09/09 06:44:04;;;;;;;;;;;19.70;99.90;;;;;;5038520;28;20365;-79
2022/09/09 06:46:32;;;;;;;;;;;19.70;99.90;;;;;;5039132;28;19979;-80
2022/09/09 06:48:58;;;;;;;;;;;19.80;99.90;;;;;;5044803;28;19913;-80
2022/09/09 06:51:25;;;;;;;;;;;19.80;99.90;;;;;;5053134;28;20073;-78
2022/09/09 06:53:52;;;;;;;;;;;19.90;99.90;;;;;;5051440;28;20361;-78
2022/09/09 06:56:17;;;;;;;;;;;20.00;99.90;;;;;;5059143;28;20687;-79
2022/09/09 06:58:46;;;;;;;;;;;20.00;99.90;;;;;;5061251;28;19947;-79
2022/09/09 07:01:19;;;;;;;;;;;20.00;99.90;;;;;;5058149;28;20318;-79
2022/09/09 07:03:47;;;;;;;;;;;20.20;99.90;;;;;;5059201;28;20396;-79
2022/09/09 07:06:14;;;;;;;;;;;20.50;99.90;;;;;;5057541;28;19908;-79
2022/09/09 07:08:40;;;;;;;;;;;20.70;99.90;;;;;;5058648;28;19974;-78
2022/09/09 07:11:07;;;;;;;;;;;20.90;99.90;;;;;;5057403;28;20380;-79
2022/09/09 07:13:32;;;;;;;;;;;20.90;99.90;;;;;;5059387;28;19909;-79
2022/09/09 07:16:09;;;;;;;;;;;21.00;99.90;;;;;;5058441;28;19936;-79
2022/09/09 07:18:34;;;;;;;;;;;21.10;99.90;;;;;;5058793;28;20279;-79
2022/09/09 07:21:01;;;;;;;;;;;21.00;99.90;;;;;;5057799;28;19967;-79
2022/09/09 07:23:27;;;;;;;;;;;20.80;99.90;;;;;;5058060;28;19924;-79
2022/09/09 07:25:53;;;;;;;;;;;20.80;99.90;;;;;;5057654;28;20334;-79
2022/09/09 07:28:19;;;;;;;;;;;20.80;99.90;;;;;;5058105;28;19972;-80
2022/09/09 07:30:52;;;;;;;;;;;20.90;99.90;;;;;;5058290;28;20352;-79
2022/09/09 07:33:19;;;;;;;;;;;21.10;99.90;;;;;;5058278;28;19908;-79
2022/09/09 07:35:45;;;;;;;;;;;21.20;99.90;;;;;;5057157;28;19909;-79
2022/09/09 07:38:11;;;;;;;;;;;21.20;99.90;;;;;;5057483;28;19916;-79
2022/09/09 07:40:37;;;;;;;;;;;21.40;99.90;;;;;;5057289;28;19917;-79
2022/09/09 07:43:02;;;;;;;;;;;21.50;99.90;;;;;;5057054;28;19908;-79
2022/09/09 07:45:28;;;;;;;;;;;21.50;99.90;;;;;;5057883;28;19913;-78
2022/09/09 07:47:55;;;;;;;;;;;21.50;99.90;;;;;;5058044;28;19909;-79
2022/09/09 07:50:20;;;;;;;;;;;21.40;99.90;;;;;;5057646;28;19913;-79
2022/09/09 07:52:46;;;;;;;;;;;21.40;99.90;;;;;;5057676;28;20272;-79
2022/09/09 07:55:11;;;;;;;;;;;21.30;99.90;;;;;;5057078;28;19908;-79
2022/09/09 07:57:37;;;;;;;;;;;21.30;99.90;;;;;;5056859;28;20345;-79
2022/09/09 08:00:03;;;;;;;;;;;21.20;99.90;;;;;;5057366;28;20046;-79
2022/09/09 08:02:29;;;;;;;;;;;21.20;99.90;;;;;;5074696;28;19917;-79
2022/09/09 08:04:55;;;;;;;;;;;21.20;99.90;;;;;;5068577;28;19996;-79
2022/09/09 08:07:21;;;;;;;;;;;21.20;99.90;;;;;;5068732;28;20327;-79
2022/09/09 08:09:46;;;;;;;;;;;21.20;99.90;;;;;;5068519;28;19944;-80
2022/09/09 08:12:12;;;;;;;;;;;21.30;99.90;;;;;;5068429;28;19909;-79
2022/09/09 08:14:39;;;;;;;;;;;21.50;99.90;;;;;;5084784;28;19908;-80
2022/09/09 08:17:05;;;;;;;;;;;21.60;99.90;;;;;;5067563;28;19962;-78
2022/09/09 08:19:33;;;;;;;;;;;21.50;99.90;;;;;;5067859;28;20250;-79
2022/09/09 08:21:59;;;;;;;;;;;21.60;99.90;;;;;;5067990;28;20261;-79
2022/09/09 08:24:25;;;;;;;;;;;21.70;99.90;;;;;;5067358;28;19915;-79
2022/09/09 08:26:50;;;;;;;;;;;21.60;99.90;;;;;;5066399;28;19916;-79
2022/09/09 08:29:16;;;;;;;;;;;21.60;99.90;;;;;;5067093;28;19916;-79
2022/09/09 08:31:45;;;;;;;;;;;21.70;99.90;;;;;;5066731;28;19908;-79
2022/09/09 08:34:10;;;;;;;;;;;21.70;99.90;;;;;;5065772;28;20443;-79
2022/09/09 08:36:37;;;;;;;;;;;21.70;99.90;;;;;;5065636;28;19919;-79
2022/09/09 08:39:04;;;;;;;;;;;21.70;99.90;;;;;;5066309;28;20327;-79
2022/09/09 08:41:32;;;;;;;;;;;21.80;99.90;;;;;;5066230;28;19948;-79
2022/09/09 08:44:11;;;;;;;;;;;21.80;99.90;;;;;;5065501;28;19909;-78
2022/09/09 08:46:45;;;;;;;;;;;21.80;99.90;;;;;;5065331;28;19913;-79
2022/09/09 08:49:23;;;;;;;;;;;22.00;99.90;;;;;;5065943;28;19940;-79
2022/09/09 08:51:49;;;;;;;;;;;22.30;99.90;;;;;;5065367;28;19913;-79
2022/09/09 08:54:15;;;;;;;;;;;22.40;99.90;;;;;;5065874;28;19909;-79
2022/09/09 08:56:41;;;;;;;;;;;22.40;99.90;;;;;;5064702;28;19958;-79
2022/09/09 08:59:09;;;;;;;;;;;22.40;99.90;;;;;;5065534;28;20372;-79
2022/09/09 09:01:41;;;;;;;;;;;22.30;99.90;;;;;;5064846;28;19908;-79
2022/09/09 09:04:19;;;;;;;;;;;22.10;99.90;;;;;;5065753;28;20003;-78
2022/09/09 09:06:50;;;;;;;;;;;22.10;99.90;;;;;;5064684;28;19909;-80
2022/09/09 09:09:30;;;;;;;;;;;22.20;99.90;;;;;;5064508;28;19917;-79
2022/09/09 09:12:00;;;;;;;;;;;22.10;99.90;;;;;;5064247;28;19993;-79
2022/09/09 09:14:27;;;;;;;;;;;22.00;99.90;;;;;;5064658;28;20000;-78
2022/09/09 09:17:03;;;;;;;;;;;21.90;99.90;;;;;;5064592;28;19963;-78
2022/09/09 09:19:30;;;;;;;;;;;21.70;99.90;;;;;;5065074;28;19932;-78
2022/09/09 09:22:02;;;;;;;;;;;21.60;99.90;;;;;;5064747;28;19909;-79
2022/09/09 09:24:47;;;;;;;;;;;21.70;99.90;;;;;;5064129;28;19999;-78
2022/09/09 09:27:14;;;;;;;;;;;21.60;99.90;;;;;;5062637;28;19999;-78
2022/09/09 09:29:41;;;;;;;;;;;21.70;99.90;;;;;;5064313;28;19920;-79
2022/09/09 09:32:12;;;;;;;;;;;21.70;99.90;;;;;;5063685;28;19955;-79
2022/09/09 09:34:38;;;;;;;;;;;21.60;99.90;;;;;;5063022;28;19909;-79
2022/09/09 09:37:12;;;;;;;;;;;21.70;99.90;;;;;;5062602;28;20406;-79
2022/09/09 09:39:39;;;;;;;;;;;21.90;99.90;;;;;;5062951;28;19952;-78
2022/09/09 09:42:17;;;;;;;;;;;22.10;99.90;;;;;;5062893;28;19909;-79
2022/09/09 09:44:42;;;;;;;;;;;22.20;99.90;;;;;;5063390;28;19916;-79
2022/09/09 09:47:10;;;;;;;;;;;22.50;99.90;;;;;;5061948;28;19909;-78
2022/09/09 09:49:36;;;;;;;;;;;22.40;99.90;;;;;;5062952;28;19940;-78
2022/09/09 09:52:03;;;;;;;;;;;22.60;99.90;;;;;;5063657;28;19916;-79
2022/09/09 09:54:29;;;;;;;;;;;22.70;99.90;;;;;;5062340;28;19951;-77
2022/09/09 09:56:55;;;;;;;;;;;23.40;99.90;;;;;;5064015;28;19909;-79
2022/09/09 09:59:23;;;;;;;;;;;23.90;99.90;;;;;;5063199;28;20179;-79
2022/09/09 10:01:48;;;;;;;;;;;23.80;99.90;;;;;;5063473;28;19971;-79
2022/09/09 10:04:19;;;;;;;;;;;23.50;99.90;;;;;;5062982;28;19913;-79
2022/09/09 10:06:45;;;;;;;;;;;23.00;99.90;;;;;;5063063;28;19916;-79
2022/09/09 10:09:22;;;;;;;;;;;23.00;99.90;;;;;;5062870;28;19913;-79
2022/09/09 10:11:53;;;;;;;;;;;23.30;99.90;;;;;;5063272;28;20430;-79
2022/09/09 10:14:30;;;;;;;;;;;23.60;99.90;;;;;;5062992;28;19913;-79
2022/09/09 10:17:04;;;;;;;;;;;24.00;99.90;;;;;;5062838;28;19909;-78
2022/09/09 10:19:31;;;;;;;;;;;24.30;99.90;;;;;;5062980;28;19916;-79
2022/09/09 10:22:06;;;;;;;;;;;24.30;99.90;;;;;;5062654;28;19919;-79
2022/09/09 10:24:41;;;;;;;;;;;24.20;99.90;;;;;;5062951;28;19932;-79
2022/09/09 10:27:09;;;;;;;;;;;24.40;99.90;;;;;;5062637;28;20284;-79
2022/09/09 10:29:44;;;;;;;;;;;24.50;99.90;;;;;;5063290;28;19912;-79
2022/09/09 10:32:10;;;;;;;;;;;24.40;99.90;;;;;;5062729;28;19909;-79
2022/09/09 10:34:39;;;;;;;;;;;24.40;99.90;;;;;;5062822;28;19919;-80
2022/09/09 10:37:11;;;;;;;;;;;24.70;99.90;;;;;;5061596;28;19909;-79
2022/09/09 10:39:40;;;;;;;;;;;24.80;99.90;;;;;;5064838;28;19917;-79
2022/09/09 10:42:09;;;;;;;;;;;24.80;99.90;;;;;;5063467;28;19923;-78
2022/09/09 10:44:57;;;;;;;;;;;24.80;99.90;;;;;;5063092;28;19999;-79
2022/09/09 10:47:38;;;;;;;;;;;25.00;99.90;;;;;;5072261;28;19909;-79
2022/09/09 10:50:11;;;;;;;;;;;25.00;99.90;;;;;;5062595;28;19912;-80
2022/09/09 10:52:55;;;;;;;;;;;24.70;99.90;;;;;;5063125;28;19920;-79
2022/09/09 10:55:25;;;;;;;;;;;24.60;99.90;;;;;;5063015;28;20111;-80
2022/09/09 10:57:52;;;;;;;;;;;24.40;99.90;;;;;;5062839;28;19913;-79
2022/09/09 11:00:24;;;;;;;;;;;24.40;99.90;;;;;;5066148;28;19909;-79
2022/09/09 11:02:55;;;;;;;;;;;24.40;99.90;;;;;;5066909;28;19908;-79
2022/09/09 11:05:23;;;;;;;;;;;24.30;99.90;;;;;;5064979;28;19908;-80
2022/09/09 11:07:53;;;;;;;;;;;23.90;99.90;;;;;;5065056;28;19931;-79
2022/09/09 11:10:30;;;;;;;;;;;23.60;99.90;;;;;;5065010;28;19917;-79
2022/09/09 11:12:59;;;;;;;;;;;23.20;99.90;;;;;;5064908;28;19919;-79
2022/09/09 11:15:45;;;;;;;;;;;22.90;99.90;;;;;;5068410;28;19930;-79
2022/09/09 11:18:13;;;;;;;;;;;22.70;99.90;;;;;;5081721;28;19909;-79
2022/09/09 11:20:39;;;;;;;;;;;22.60;99.90;;;;;;5064976;28;20359;-79
2022/09/09 11:23:08;;;;;;;;;;;22.50;99.90;;;;;;5065121;28;19915;-79
2022/09/09 11:25:36;;;;;;;;;;;22.50;99.90;;;;;;5064122;28;19983;-78
2022/09/09 11:28:09;;;;;;;;;;;22.70;99.90;;;;;;5065165;28;20019;-79
2022/09/09 11:30:58;;;;;;;;;;;23.00;99.90;;;;;;5064102;28;20001;-79
2022/09/09 11:33:27;;;;;;;;;;;23.00;99.90;;;;;;5073186;28;19913;-79
2022/09/09 11:36:13;;;;;;;;;;;23.10;99.90;;;;;;5063436;28;20422;-80
2022/09/09 11:38:51;;;;;;;;;;;23.10;99.90;;;;;;5064262;28;20368;-78
2022/09/09 11:41:17;;;;;;;;;;;23.10;99.90;;;;;;5064013;28;19943;-79
2022/09/09 11:43:46;;;;;;;;;;;23.10;99.90;;;;;;5063702;28;20351;-79
2022/09/09 11:46:13;;;;;;;;;;;22.90;99.90;;;;;;5064459;28;19909;-80
2022/09/09 11:48:39;;;;;;;;;;;22.70;99.90;;;;;;5063916;28;19916;-79
2022/09/09 11:51:05;;;;;;;;;;;22.40;99.90;;;;;;5064625;28;19913;-79
2022/09/09 11:53:31;;;;;;;;;;;22.30;99.90;;;;;;5063952;28;20295;-80
2022/09/09 11:56:08;;;;;;;;;;;22.40;99.90;;;;;;5064540;28;19955;-78
2022/09/09 11:58:40;;;;;;;;;;;22.40;99.90;;;;;;5063935;28;19909;-79
2022/09/09 12:01:16;;;;;;;;;;;22.30;99.90;;;;;;5063901;28;20352;-79
2022/09/09 12:03:46;;;;;;;;;;;21.90;99.90;;;;;;5063745;28;20288;-78
2022/09/09 12:06:18;;;;;;;;;;;21.60;99.90;;;;;;5062544;28;19916;-78
2022/09/09 12:08:46;;;;;;;;;;;21.40;99.90;;;;;;5063302;28;19916;-79
2022/09/09 12:11:11;;;;;;;;;;;21.30;99.90;;;;;;5061925;28;19920;-79
2022/09/09 12:13:37;;;;;;;;;;;21.40;99.90;;;;;;5062508;28;19909;-78
2022/09/09 12:16:05;;;;;;;;;;;21.30;99.90;;;;;;5062650;28;20384;-79
2022/09/09 12:18:36;;;;;;;;;;;21.20;99.90;;;;;;5061119;28;19909;-78
2022/09/09 12:21:11;;;;;;;;;;;20.90;99.90;;;;;;5061741;28;20331;-79
2022/09/09 12:23:49;;;;;;;;;;;20.60;99.90;;;;;;5056085;28;19992;-80
2022/09/09 12:26:33;;;;;;;;;;;20.50;99.90;;;;;;5057195;28;20000;-79
2022/09/09 12:28:59;;;;;;;;;;;20.50;99.90;;;;;;5043689;28;19909;-81
2022/09/09 12:31:25;;;;;;;;;;;20.50;99.90;;;;;;5038052;28;19939;-77
2022/09/09 12:33:52;;;;;;;;;;;20.60;99.90;;;;;;5039679;28;19920;-78
2022/09/09 12:36:19;;;;;;;;;;;20.60;99.90;;;;;;5044838;28;19909;-78
2022/09/09 12:38:45;;;;;;;;;;;20.50;99.90;;;;;;5057547;28;19909;-77
2022/09/09 12:41:21;;;;;;;;;;;20.20;99.90;;;;;;5059551;28;19944;-78
2022/09/09 12:43:47;;;;;;;;;;;19.60;99.90;;;;;;5061318;28;19916;-77
2022/09/09 12:46:33;;;;;;;;;;;18.80;99.90;;;;;;5061394;28;20363;-77
2022/09/09 12:48:58;;;;;;;;;;;18.50;99.90;;;;;;5060423;28;19920;-77
2022/09/09 12:51:25;;;;;;;;;;;18.70;99.90;;;;;;5061554;28;19908;-78
2022/09/09 12:53:50;;;;;;;;;;;19.10;99.90;;;;;;5061831;28;20320;-78
2022/09/09 12:56:23;;;;;;;;;;;19.60;99.90;;;;;;5062889;28;19913;-78
2022/09/09 12:58:51;;;;;;;;;;;19.90;99.90;;;;;;5063625;28;20371;-78
2022/09/09 13:01:43;;;;;;;;;;;20.10;99.90;;;;;;5063511;28;19912;-77
2022/09/09 13:04:26;;;;;;;;;;;20.80;99.90;;;;;;5057747;28;19908;-78
2022/09/09 13:06:52;;;;;;;;;;;20.90;99.90;;;;;;5059604;28;19916;-78
2022/09/09 13:09:18;;;;;;;;;;;21.10;99.90;;;;;;5060611;28;19917;-78
2022/09/09 13:11:50;;;;;;;;;;;21.40;99.90;;;;;;5060198;28;19909;-77
2022/09/09 13:14:23;;;;;;;;;;;21.80;99.90;;;;;;5056179;28;19927;-77
2022/09/09 13:16:59;;;;;;;;;;;22.10;99.90;;;;;;5054214;28;19915;-78
2022/09/09 13:19:28;;;;;;;;;;;22.20;99.90;;;;;;5056288;28;19995;-77
2022/09/09 13:21:57;;;;;;;;;;;22.30;99.90;;;;;;5059366;28;19917;-78
2022/09/09 13:24:31;;;;;;;;;;;22.30;99.90;;;;;;5063238;28;19916;-79
2022/09/09 13:26:57;;;;;;;;;;;22.20;99.90;;;;;;5064137;28;19909;-79
2022/09/09 13:29:23;;;;;;;;;;;22.30;99.90;;;;;;5062335;28;19916;-78
2022/09/09 13:31:52;;;;;;;;;;;22.30;99.90;;;;;;5059940;28;19958;-78
2022/09/09 13:34:27;;;;;;;;;;;22.20;99.90;;;;;;5062129;28;19968;-78
2022/09/09 13:36:54;;;;;;;;;;;22.20;99.90;;;;;;5063185;28;19916;-77
2022/09/09 13:39:20;;;;;;;;;;;22.10;99.90;;;;;;5061104;28;19912;-77
2022/09/09 13:41:46;;;;;;;;;;;22.10;99.90;;;;;;5059944;28;19919;-78
2022/09/09 13:44:26;;;;;;;;;;;21.80;99.90;;;;;;5058740;28;19916;-78
2022/09/09 13:47:00;;;;;;;;;;;22.00;99.90;;;;;;5059141;28;19909;-78
2022/09/09 13:49:28;;;;;;;;;;;22.10;99.90;;;;;;5059970;28;19916;-79
2022/09/09 13:52:04;;;;;;;;;;;22.10;99.90;;;;;;5061113;28;20328;-78
2022/09/09 13:54:30;;;;;;;;;;;22.00;99.90;;;;;;5062994;28;19915;-79
2022/09/09 13:56:56;;;;;;;;;;;21.90;99.90;;;;;;5062992;28;19913;-77
2022/09/09 13:59:21;;;;;;;;;;;21.80;99.90;;;;;;5063157;28;19912;-79
2022/09/09 14:01:48;;;;;;;;;;;21.70;99.90;;;;;;5063156;28;19908;-77
2022/09/09 14:04:15;;;;;;;;;;;21.70;99.90;;;;;;5064254;28;19931;-79
2022/09/09 14:06:41;;;;;;;;;;;21.70;99.90;;;;;;5063270;28;19909;-78
2022/09/09 14:09:09;;;;;;;;;;;21.60;99.90;;;;;;5064705;28;20325;-78
2022/09/09 14:11:35;;;;;;;;;;;21.70;99.90;;;;;;5064731;28;20331;-77
2022/09/09 14:14:04;;;;;;;;;;;21.80;99.90;;;;;;5065126;28;19909;-79
2022/09/09 14:16:29;;;;;;;;;;;21.80;99.90;;;;;;5065099;28;19916;-78
2022/09/09 14:18:56;;;;;;;;;;;21.70;99.90;;;;;;5062266;28;19909;-77
2022/09/09 14:21:22;;;;;;;;;;;21.40;99.90;;;;;;5064840;28;19948;-79
2022/09/09 14:23:48;;;;;;;;;;;20.70;99.90;;;;;;5066142;28;19959;-76
2022/09/09 14:26:14;;;;;;;;;;;20.10;99.90;;;;;;5064663;28;19948;-78